createdAt,value
2019-03-28T00:03:00.228Z,3.57
2019-03-28T00:07:05.930Z,3.03
2019-03-28T00:11:11.616Z,3.23
2019-03-28T00:15:17.324Z,3.73
2019-03-28T00:19:23.017Z,3.20
2019-03-28T00:23:42.635Z,3.13
2019-03-28T00:27:48.336Z,3.62
2019-03-28T00:31:54.128Z,3.50
2019-03-28T00:36:00.293Z,3.40
2019-03-28T00:40:08.718Z,3.10
2019-03-28T00:44:14.414Z,3.47
2019-03-28T00:48:20.125Z,4.10
2019-03-28T00:52:25.811Z,4.73
2019-03-28T00:56:44.746Z,4.07
2019-03-28T01:00:38.964Z,3.80
2019-03-28T01:04:44.653Z,3.50
2019-03-28T01:08:50.356Z,4.22
2019-03-28T01:12:56.054Z,4.43
2019-03-28T01:17:01.776Z,4.43
2019-03-28T01:21:07.499Z,4.80
2019-03-28T01:25:13.265Z,3.00
2019-03-28T01:29:18.950Z,3.90
2019-03-28T01:33:24.641Z,4.53
2019-03-28T01:37:30.339Z,4.10
2019-03-28T01:41:36.114Z,3.93
2019-03-28T01:45:41.884Z,4.30
2019-03-28T01:49:47.554Z,4.00
2019-03-28T01:53:53.240Z,4.27
2019-03-28T01:57:58.936Z,3.43
2019-03-28T02:02:04.625Z,3.97
2019-03-28T02:06:10.337Z,3.60
2019-03-28T02:10:17.859Z,4.17
2019-03-28T02:14:23.545Z,3.40
2019-03-28T02:18:29.293Z,3.73
2019-03-28T02:22:35.093Z,3.63
2019-03-28T02:26:40.841Z,3.40
2019-03-28T02:30:46.538Z,3.50
2019-03-28T02:34:52.305Z,4.17
2019-03-28T02:38:58.587Z,3.53
2019-03-28T02:43:04.362Z,4.67
2019-03-28T02:47:10.074Z,3.80
2019-03-28T02:51:15.728Z,3.70
2019-03-28T02:55:21.408Z,3.90
2019-03-28T02:59:27.098Z,3.80
2019-03-28T03:03:32.782Z,3.90
2019-03-28T03:07:38.486Z,3.97
2019-03-28T03:11:44.180Z,3.73
2019-03-28T03:15:49.869Z,4.07
2019-03-28T03:19:55.571Z,4.27
2019-03-28T03:24:01.255Z,4.40
2019-03-28T03:28:06.929Z,3.77
2019-03-28T03:32:12.622Z,4.00
2019-03-28T03:36:18.313Z,4.13
2019-03-28T03:40:24.130Z,4.23
2019-03-28T03:44:29.916Z,3.73
2019-03-28T03:48:35.656Z,4.17
2019-03-28T03:52:41.651Z,4.00
2019-03-28T03:56:47.583Z,4.00
2019-03-28T04:00:53.306Z,4.00
2019-03-28T04:04:58.988Z,3.57
2019-03-28T04:09:06.131Z,3.53
2019-03-28T04:13:11.836Z,4.27
2019-03-28T04:17:17.605Z,3.60
2019-03-28T04:21:23.322Z,4.03
2019-03-28T04:25:29.076Z,4.00
2019-03-28T04:29:34.741Z,3.90
2019-03-28T04:33:40.537Z,3.42
2019-03-28T04:37:47.456Z,3.70
2019-03-28T04:41:53.124Z,3.93
2019-03-28T04:45:58.879Z,3.73
2019-03-28T04:50:06.594Z,4.27
2019-03-28T04:54:12.301Z,4.60
2019-03-28T04:58:17.969Z,3.93
2019-03-28T05:02:23.657Z,3.57
2019-03-28T05:06:29.344Z,4.30
2019-03-28T05:10:36.009Z,4.17
2019-03-28T05:14:41.693Z,3.80
2019-03-28T05:18:47.376Z,3.57
2019-03-28T05:22:54.107Z,3.90
2019-03-28T05:26:59.805Z,4.63
2019-03-28T05:31:05.468Z,3.30
2019-03-28T05:35:11.501Z,4.27
2019-03-28T05:39:17.192Z,3.70
2019-03-28T05:43:22.892Z,4.27
2019-03-28T05:47:29.440Z,4.70
2019-03-28T05:51:35.204Z,3.60
2019-03-28T05:55:40.895Z,4.50
2019-03-28T05:59:46.581Z,4.87
2019-03-28T06:03:52.268Z,5.40
2019-03-28T06:07:57.934Z,4.43
2019-03-28T06:12:03.720Z,4.80
2019-03-28T06:16:09.405Z,4.90
2019-03-28T06:20:15.434Z,4.90
2019-03-28T06:24:21.122Z,5.00
2019-03-28T06:28:26.876Z,5.47
2019-03-28T06:32:42.233Z,5.60
2019-03-28T06:36:40.504Z,5.43
2019-03-28T06:40:46.462Z,5.50
2019-03-28T06:44:52.173Z,4.83
2019-03-28T06:48:57.837Z,5.43
2019-03-28T06:53:03.530Z,9.50
2019-03-28T06:57:09.275Z,6.30
2019-03-28T07:01:15.215Z,6.30
2019-03-28T07:05:22.266Z,6.27
2019-03-28T07:09:27.964Z,6.67
2019-03-28T07:13:33.797Z,5.30
2019-03-28T07:17:39.488Z,6.27
2019-03-28T07:21:45.229Z,6.40
2019-03-28T07:25:50.902Z,6.00
2019-03-28T07:29:56.599Z,6.83
2019-03-28T07:34:02.294Z,6.27
2019-03-28T07:38:08.068Z,8.33
2019-03-28T07:42:13.763Z,4.53
2019-03-28T07:46:19.449Z,6.17
2019-03-28T07:50:26.127Z,6.07
2019-03-28T07:54:31.822Z,5.23
2019-03-28T07:58:38.617Z,7.63
2019-03-28T08:02:44.290Z,6.17
2019-03-28T08:06:51.205Z,6.33
2019-03-28T08:10:57.550Z,6.20
2019-03-28T08:15:04.763Z,6.47
2019-03-28T08:19:11.460Z,6.13
2019-03-28T08:23:17.332Z,5.83
2019-03-28T08:27:23.087Z,9.08
2019-03-28T08:31:28.903Z,6.67
2019-03-28T08:35:37.316Z,6.20
2019-03-28T08:39:44.674Z,6.60
2019-03-28T08:43:50.497Z,5.70
2019-03-28T08:47:56.233Z,5.13
2019-03-28T08:52:01.928Z,5.87
2019-03-28T08:56:07.700Z,6.10
2019-03-28T09:00:16.733Z,5.80
2019-03-28T09:04:22.978Z,4.10
2019-03-28T09:08:28.652Z,4.73
2019-03-28T09:12:35.367Z,4.57
2019-03-28T09:16:41.467Z,4.20
2019-03-28T09:20:47.333Z,4.50
2019-03-28T09:25:17.595Z,3.80
2019-03-28T09:29:23.345Z,4.40
2019-03-28T09:33:30.080Z,4.67
2019-03-28T09:37:35.797Z,4.90
2019-03-28T09:42:18.100Z,5.00
2019-03-28T09:46:23.775Z,5.40
2019-03-28T09:50:29.492Z,4.90
2019-03-28T09:54:36.316Z,5.93
2019-03-28T09:58:42.006Z,5.60
2019-03-28T10:02:49.286Z,5.30
2019-03-28T10:06:55.023Z,4.67
2019-03-28T10:11:00.701Z,5.03
2019-03-28T10:15:09.453Z,5.90
2019-03-28T10:19:17.826Z,5.47
2019-03-28T10:23:23.514Z,5.30
2019-03-28T10:27:29.218Z,4.73
2019-03-28T10:31:34.992Z,6.27
2019-03-28T10:35:40.806Z,6.37
2019-03-28T10:39:46.533Z,5.85
2019-03-28T10:43:52.243Z,5.17
2019-03-28T10:47:58.082Z,4.77
2019-03-28T10:52:04.155Z,5.77
2019-03-28T10:56:21.048Z,4.53
2019-03-28T11:05:35.420Z,6.10
2019-03-28T11:09:41.229Z,5.13
2019-03-28T11:13:46.941Z,4.60
2019-03-28T11:17:52.662Z,5.60
2019-03-28T11:21:58.354Z,5.37
2019-03-28T11:26:04.115Z,5.03
2019-03-28T11:30:10.721Z,5.63
2019-03-28T11:34:16.528Z,5.87
2019-03-28T11:38:22.220Z,5.40
2019-03-28T11:42:27.995Z,5.20
2019-03-28T11:46:33.712Z,5.20
2019-03-28T11:50:39.432Z,4.50
2019-03-28T11:54:45.122Z,4.20
2019-03-28T11:58:50.809Z,3.57
2019-03-28T12:02:56.506Z,4.03
2019-03-28T12:07:02.205Z,3.90
2019-03-28T12:11:07.919Z,3.57
2019-03-28T12:15:14.234Z,3.53
2019-03-28T12:19:19.937Z,3.98
2019-03-28T12:23:25.690Z,4.10
2019-03-28T12:27:31.378Z,4.47
2019-03-28T12:31:37.077Z,4.00
2019-03-28T12:35:42.851Z,3.30
2019-03-28T12:39:48.531Z,3.13
2019-03-28T12:43:54.231Z,3.37
2019-03-28T12:47:59.916Z,3.20
2019-03-28T12:52:07.327Z,3.23
2019-03-28T12:56:13.034Z,3.17
2019-03-28T13:00:23.308Z,3.17
2019-03-28T13:04:29.003Z,3.80
2019-03-28T13:08:34.725Z,3.80
2019-03-28T13:12:40.553Z,3.30
2019-03-28T13:16:46.266Z,3.67
2019-03-28T13:20:52.038Z,3.50
2019-03-28T13:24:57.721Z,4.23
2019-03-28T13:29:03.472Z,3.30
2019-03-28T13:33:10.688Z,3.00
2019-03-28T13:37:16.377Z,3.83
2019-03-28T13:41:22.074Z,4.10
2019-03-28T13:45:27.777Z,3.60
2019-03-28T13:49:33.463Z,4.70
2019-03-28T13:53:40.081Z,4.70
2019-03-28T13:57:45.843Z,3.90
2019-03-28T14:01:51.605Z,3.13
2019-03-28T14:05:57.308Z,3.53
2019-03-28T14:10:03.068Z,3.87
2019-03-28T14:14:08.754Z,4.00
2019-03-28T14:18:14.487Z,4.40
2019-03-28T14:22:20.199Z,4.50
2019-03-28T14:26:25.963Z,4.03
2019-03-28T14:30:31.670Z,4.33
2019-03-28T14:34:39.838Z,4.93
2019-03-28T14:38:44.774Z,4.80
2019-03-28T14:42:51.442Z,4.80
2019-03-28T14:46:57.163Z,3.93
2019-03-28T14:51:03.074Z,4.30
2019-03-28T14:55:09.010Z,4.97
2019-03-28T14:59:15.487Z,4.03
2019-03-28T15:03:26.665Z,4.20
2019-03-28T15:07:28.803Z,3.67
2019-03-28T15:11:34.511Z,4.33
2019-03-28T15:15:40.199Z,4.40
2019-03-28T15:19:45.941Z,4.50
2019-03-28T15:23:51.683Z,4.50
2019-03-28T15:27:57.517Z,4.00
2019-03-28T15:32:03.306Z,7.03
2019-03-28T15:36:09.026Z,4.20
2019-03-28T15:40:16.483Z,4.63
2019-03-28T15:44:22.175Z,3.87
2019-03-28T15:48:27.875Z,4.63
2019-03-28T15:52:33.571Z,4.70
2019-03-28T15:56:39.524Z,4.50
2019-03-28T16:00:45.301Z,4.40
2019-03-28T16:04:51.054Z,4.30
2019-03-28T16:08:56.748Z,4.10
2019-03-28T16:13:02.549Z,4.93
2019-03-28T16:17:09.095Z,3.93
2019-03-28T16:21:14.880Z,3.93
2019-03-28T16:25:20.578Z,3.97
2019-03-28T16:29:26.269Z,4.00
2019-03-28T16:33:32.045Z,4.17
2019-03-28T16:37:39.974Z,3.73
2019-03-28T16:41:49.627Z,4.43
2019-03-28T16:45:55.493Z,3.70
2019-03-28T16:50:03.672Z,3.13
2019-03-28T16:54:09.412Z,2.83
2019-03-28T16:58:15.190Z,2.73
2019-03-28T17:02:21.854Z,3.37
2019-03-28T17:06:27.857Z,2.57
2019-03-28T17:10:45.397Z,2.83
2019-03-28T17:14:51.740Z,2.27
2019-03-28T17:18:57.487Z,2.77
2019-03-28T17:23:03.203Z,3.17
2019-03-28T17:27:08.899Z,3.13
2019-03-28T17:31:14.601Z,3.97
2019-03-28T17:35:20.299Z,3.57
2019-03-28T17:39:26.088Z,3.30
2019-03-28T17:43:32.049Z,3.90
2019-03-28T17:47:37.755Z,5.73
2019-03-28T17:51:43.463Z,4.63
2019-03-28T17:55:49.172Z,3.77
2019-03-28T17:59:54.940Z,5.37
2019-03-28T18:04:00.812Z,3.93
2019-03-28T18:08:07.490Z,3.77
2019-03-28T18:12:13.844Z,3.33
2019-03-28T18:16:19.750Z,4.90
2019-03-28T18:20:25.619Z,4.73
2019-03-28T18:24:33.025Z,4.33
2019-03-28T18:37:10.577Z,3.97
2019-03-28T18:41:16.316Z,4.17
2019-03-28T18:45:22.047Z,3.23
2019-03-28T18:49:27.749Z,3.77
2019-03-28T18:53:33.510Z,3.90
2019-03-28T18:57:39.821Z,3.97
2019-03-28T19:01:45.574Z,5.23
2019-03-28T19:05:51.284Z,3.87
2019-03-28T19:09:56.994Z,3.07
2019-03-28T19:14:02.791Z,3.27
2019-03-28T19:18:08.557Z,4.35
2019-03-28T19:22:14.285Z,5.27
2019-03-28T19:26:19.994Z,4.50
2019-03-28T19:30:32.709Z,4.10
2019-03-28T19:34:38.411Z,4.43
2019-03-28T19:38:44.526Z,4.90
2019-03-28T19:42:50.249Z,4.40
2019-03-28T19:46:55.969Z,4.27
2019-03-28T19:51:02.270Z,4.20
2019-03-28T19:55:08.522Z,3.87
2019-03-28T19:59:14.378Z,3.27
2019-03-28T20:03:23.078Z,4.03
2019-03-28T20:07:27.473Z,3.83
2019-03-28T20:11:33.300Z,3.47
2019-03-28T20:15:39.476Z,3.70
2019-03-28T20:19:45.256Z,3.63
2019-03-28T20:23:50.965Z,4.27
2019-03-28T20:27:56.722Z,4.10
2019-03-28T20:32:02.422Z,4.50
2019-03-28T20:36:35.659Z,4.40
2019-03-28T20:40:16.199Z,4.40
2019-03-28T20:44:22.018Z,4.03
2019-03-28T20:48:27.924Z,3.93
2019-03-28T20:52:33.645Z,3.80
2019-03-28T20:56:39.332Z,3.50
2019-03-28T21:00:47.780Z,3.40
2019-03-28T21:04:53.547Z,3.80
2019-03-28T21:08:59.250Z,3.37
2019-03-28T21:13:06.536Z,3.20
2019-03-28T21:17:12.295Z,3.40
2019-03-28T21:21:18.081Z,3.10
2019-03-28T21:25:23.791Z,3.70
2019-03-28T21:29:29.510Z,3.43
2019-03-28T21:33:35.235Z,3.70
2019-03-28T21:37:40.940Z,4.03
2019-03-28T21:41:46.639Z,3.60
2019-03-28T21:45:52.391Z,3.90
2019-03-28T21:49:58.093Z,3.63
2019-03-28T21:54:05.141Z,4.20
2019-03-28T21:59:17.814Z,4.33
2019-03-28T22:03:23.590Z,5.00
2019-03-28T22:08:17.383Z,4.00
2019-03-28T22:12:23.079Z,4.67
2019-03-28T22:16:28.791Z,5.17
2019-03-28T22:20:34.538Z,5.20
2019-03-28T22:24:40.235Z,4.93
2019-03-28T22:28:46.505Z,4.67
2019-03-28T22:32:52.231Z,5.67
2019-03-28T22:36:59.973Z,5.40
2019-03-28T22:41:20.203Z,4.73
2019-03-28T22:45:25.894Z,5.67
2019-03-28T22:49:31.936Z,5.23
2019-03-28T22:53:37.787Z,5.40
2019-03-28T22:57:43.531Z,5.57
2019-03-28T23:01:49.375Z,5.83
2019-03-28T23:05:55.062Z,5.57
2019-03-28T23:10:00.860Z,4.10
2019-03-28T23:14:07.730Z,5.87
2019-03-28T23:18:13.872Z,5.10
2019-03-28T23:22:19.525Z,4.80
2019-03-28T23:26:25.215Z,5.50
2019-03-28T23:30:31.039Z,4.53
2019-03-28T23:34:36.715Z,4.60
2019-03-28T23:38:42.438Z,5.20
2019-03-28T23:42:49.139Z,4.77
2019-03-28T23:46:54.906Z,3.37
2019-03-28T23:51:00.654Z,5.03
2019-03-28T23:55:08.701Z,4.10
2019-03-28T23:59:14.412Z,4.47
